Главная страница
METAR-TAF:

METAR-TAF

Аэропорты :

Sussex Airport

Sussex, Нью-Джерси, США

широта: 41-12-01N, долгота: 074-37-23W, высота над уровнем моря: 128 м

Текущие метеонаблюдения

Эта сводка был подготовлена 26 минут назад, в 05:53 UTC
Ветер 3 Узел от восточно-северо-восточный
Температура 18°C
Влажность 77%
Давление 1015 hPa
Видимость: 16.1 км
Отдельные облака на высоте 2100 фута
Сплошная облачность на высоте 5500 фута

METAR: KFWN 230553Z AUTO 07003KT 10SM SCT021 OVC055 18/14 A2997 RMK AO2 SLP146 T01780144 10206 20178 56010

Время: 02:19 (06:19 UTC)


TAF: отсутствует

Метеонаблюдения и прогнозы для более 4000 аэропортов (сводки METAR и TAF).

Имеющиеся станции представлены на карте желтыми и красными точками.

Чтобы увидеть название станции, наведите на нее мышь.

Затем щелкните, чтобы увидеть метеонаблюдения и метеопрогнозы.

Управление картой: чтобы увеличить масштаб, щелкните зеленые кнопки с черным крестиком; чтобы уменьшить масштаб, щелкните зеленую кнопку с тире; для просмотра соседних карт щелкайте зеленые стрелки.


METAR-TAF: